Time;durP1;ratioP1;P1;durP2;ratioP2;P2;SDS_P1;SDS_P2;PMS_P1;PMS_P2;Temp;Humidity;BMP_temperature;BMP_pressure;BME280_temperature;BME280_humidity;BME280_pressure;Samples;Min_cycle;Max_cycle;Signal;HPM_P1;HPM_P2
2021/11/22 00:00:10;;;;;;;;;;;;;;;20.77;33.33;95244.06;1043728;28;1144;-57
2021/11/22 00:00:42;;;;;;;;;;;;;;;20.78;33.25;95243.00;1044063;28;1162;-59
2021/11/22 00:01:12;;;;;;;;;;;;;;;20.79;33.12;95244.56;1038482;28;1823;-57
2021/11/22 00:01:43;;;;;;;;;;;;;;;20.80;33.34;95248.78;1039751;28;1604;-58
2021/11/22 00:02:13;;;;;;;;;;;;;;;20.81;33.12;95245.06;1042403;28;1240;-57
2021/11/22 00:02:44;;;;;;;;;;;;;;;20.83;33.27;95245.59;1042745;28;1206;-59
2021/11/22 00:03:14;;;;;;;;;;;;;;;20.83;33.16;95239.53;1043483;28;1399;-57
2021/11/22 00:03:44;;;;;;;;;;;;;;;20.84;32.88;95247.13;1043886;28;1087;-59
2021/11/22 00:04:16;;;;;;;;;;;;;;;20.86;33.13;95244.19;1037828;28;1130;-58
2021/11/22 00:04:47;;;;;;;;;;;;;;;20.86;33.06;95252.91;1038270;28;1324;-57
2021/11/22 00:05:17;;;;;;;;;;;;;;;20.87;33.01;95233.41;1037503;28;1292;-58
2021/11/22 00:05:47;;;;;;;;;;;;;;;20.88;33.23;95239.44;1041770;28;1339;-59
2021/11/22 00:06:18;;;;;;;;;;;;;;;20.89;33.10;95241.78;1043015;28;1908;-57
2021/11/22 00:06:49;;;;;;;;;;;;;;;20.90;32.97;95239.91;1041766;28;1384;-57
2021/11/22 00:07:19;;;;;;;;;;;;;;;20.90;33.14;95240.72;1044511;28;1268;-56
2021/11/22 00:07:50;;;;;;;;;;;;;;;20.92;33.10;95235.16;1043769;28;1181;-57
2021/11/22 00:08:20;;;;;;;;;;;;;;;20.92;32.86;95230.66;1043983;28;1121;-56
2021/11/22 00:08:51;;;;;;;;;;;;;;;20.93;32.87;95239.34;1043933;28;1221;-56
2021/11/22 00:09:21;;;;;;;;;;;;;;;20.93;32.86;95232.25;1043913;28;1296;-57
2021/11/22 00:09:52;;;;;;;;;;;;;;;20.94;33.12;95233.78;1044423;28;1217;-56
2021/11/22 00:10:22;;;;;;;;;;;;;;;20.95;32.91;95235.38;1043110;28;1907;-55
2021/11/22 00:10:53;;;;;;;;;;;;;;;20.96;32.91;95233.50;1043507;28;1770;-57
2021/11/22 00:11:23;;;;;;;;;;;;;;;20.97;33.03;95238.50;1043101;28;1906;-58
2021/11/22 00:11:54;;;;;;;;;;;;;;;20.96;33.06;95225.59;1044006;28;1208;-57
2021/11/22 00:12:26;;;;;;;;;;;;;;;20.99;32.84;95235.56;1044083;28;1209;-56
2021/11/22 00:12:56;;;;;;;;;;;;;;;20.98;33.11;95224.25;1044311;28;1225;-59
2021/11/22 00:13:27;;;;;;;;;;;;;;;20.98;32.82;95224.25;1044548;28;1304;-57
2021/11/22 00:13:57;;;;;;;;;;;;;;;20.99;32.96;95223.19;1044234;28;1201;-56
2021/11/22 00:14:27;;;;;;;;;;;;;;;20.99;32.88;95225.81;1042794;28;1387;-56
2021/11/22 00:14:58;;;;;;;;;;;;;;;21.00;32.89;95232.63;1044034;28;1939;-58
2021/11/22 00:15:28;;;;;;;;;;;;;;;21.00;33.08;95230.00;1044056;28;1434;-56
2021/11/22 00:15:58;;;;;;;;;;;;;;;21.02;32.94;95227.09;1044207;28;1358;-58
2021/11/22 00:16:29;;;;;;;;;;;;;;;21.02;32.89;95224.47;1043385;28;2202;-54
2021/11/22 00:16:59;;;;;;;;;;;;;;;21.02;32.81;95224.47;1044515;28;1240;-55
2021/11/22 00:17:30;;;;;;;;;;;;;;;21.03;33.02;95221.56;1044548;28;1115;-58
2021/11/22 00:18:00;;;;;;;;;;;;;;;21.03;33.03;95218.94;1043642;28;1047;-57
2021/11/22 00:18:31;;;;;;;;;;;;;;;21.05;32.74;95231.81;1044365;28;1111;-55
2021/11/22 00:19:01;;;;;;;;;;;;;;;21.04;32.83;95225.75;1044869;28;1284;-56
2021/11/22 00:19:33;;;;;;;;;;;;;;;21.05;32.61;95226.53;1045094;28;1084;-55
2021/11/22 00:20:04;;;;;;;;;;;;;;;21.05;32.83;95227.34;1045413;28;1253;-54
2021/11/22 00:20:34;;;;;;;;;;;;;;;21.06;32.86;95231.50;1044901;28;1119;-53
2021/11/22 00:21:05;;;;;;;;;;;;;;;21.07;32.86;95229.66;1044905;28;1213;-56
2021/11/22 00:21:35;;;;;;;;;;;;;;;21.08;32.79;95230.47;1044143;28;1934;-57
2021/11/22 00:22:07;;;;;;;;;;;;;;;21.08;32.84;95233.09;1045037;28;1248;-54
2021/11/22 00:22:37;;;;;;;;;;;;;;;21.08;32.81;95234.66;1044827;28;1158;-59
2021/11/22 00:23:07;;;;;;;;;;;;;;;21.08;32.83;95228.63;1043904;28;1422;-57
2021/11/22 00:23:38;;;;;;;;;;;;;;;21.10;33.01;95233.59;1044056;28;1398;-56
2021/11/22 00:24:08;;;;;;;;;;;;;;;21.11;32.75;95237.78;1044937;28;1359;-57
2021/11/22 00:24:39;;;;;;;;;;;;;;;21.10;32.88;95233.59;1043392;28;1879;-57
2021/11/22 00:25:09;;;;;;;;;;;;;;;21.11;32.87;95237.78;1044904;28;1402;-56
2021/11/22 00:25:40;;;;;;;;;;;;;;;21.11;32.72;95249.09;1043874;28;1680;-56
2021/11/22 00:26:10;;;;;;;;;;;;;;;21.12;32.92;95244.63;1043433;28;1216;-58
2021/11/22 00:26:40;;;;;;;;;;;;;;;21.12;32.75;95250.69;1042915;28;1817;-58
2021/11/22 00:27:11;;;;;;;;;;;;;;;21.12;32.76;95240.16;1045196;28;1210;-58
2021/11/22 00:27:41;;;;;;;;;;;;;;;21.12;32.77;95242.78;1045092;28;1111;-56
2021/11/22 00:28:12;;;;;;;;;;;;;;;21.13;32.71;95240.91;1044782;28;1359;-57
2021/11/22 00:28:42;;;;;;;;;;;;;;;21.14;32.86;95237.22;1041579;28;2195;-58
2021/11/22 00:29:13;;;;;;;;;;;;;;;21.12;32.79;95242.78;1045049;28;755;-57
2021/11/22 00:29:43;;;;;;;;;;;;;;;21.13;32.75;95238.25;1044954;28;1167;-58
2021/11/22 00:30:14;;;;;;;;;;;;;;;21.14;32.91;95239.84;1045075;28;1181;-59
2021/11/22 00:30:45;;;;;;;;;;;;;;;21.14;32.71;95237.22;1044612;28;1182;-56
2021/11/22 00:31:15;;;;;;;;;;;;;;;21.15;32.88;95246.66;1044915;28;1070;-57
2021/11/22 00:31:48;;;;;;;;;;;;;;;21.16;32.75;95253.53;1044350;28;2223;-58
2021/11/22 00:32:19;;;;;;;;;;;;;;;21.15;32.89;95249.31;1045050;28;1123;-56
2021/11/22 00:32:49;;;;;;;;;;;;;;;21.17;32.74;95244.53;1044404;28;1041;-58
2021/11/22 00:33:20;;;;;;;;;;;;;;;21.17;32.92;95247.16;1044883;28;1213;-55
2021/11/22 00:33:52;;;;;;;;;;;;;;;21.17;32.80;95249.78;1044897;28;1150;-57
2021/11/22 00:34:22;;;;;;;;;;;;;;;21.18;32.72;95246.09;1044404;28;1147;-58
2021/11/22 00:34:56;;;;;;;;;;;;;;;21.17;32.97;95247.16;1043500;28;1426;-58
2021/11/22 00:35:35;;;;;;;;;;;;;;;21.18;32.68;95248.75;1044570;28;1275;-58
2021/11/22 00:36:06;;;;;;;;;;;;;;;21.17;32.97;95241.88;1043983;28;1231;-56
2021/11/22 00:36:36;;;;;;;;;;;;;;;21.18;32.87;95248.75;1044230;28;1910;-57
2021/11/22 00:37:11;;;;;;;;;;;;;;;21.18;32.76;95248.75;1045131;28;1005;-57
2021/11/22 00:37:44;;;;;;;;;;;;;;;21.18;32.68;95248.75;1045083;28;1131;-55
2021/11/22 00:38:14;;;;;;;;;;;;;;;21.18;32.74;95246.91;1045280;28;1160;-57
2021/11/22 00:38:45;;;;;;;;;;;;;;;21.20;32.84;95249.22;1045203;28;1098;-58
2021/11/22 00:39:15;;;;;;;;;;;;;;;21.20;32.62;95251.88;1044673;28;702;-56
2021/11/22 00:39:45;;;;;;;;;;;;;;;21.19;32.75;95245.03;1044880;28;1122;-58
2021/11/22 00:40:16;;;;;;;;;;;;;;;21.20;32.90;95249.22;1044894;28;1154;-57
2021/11/22 00:40:46;;;;;;;;;;;;;;;21.20;32.79;95242.13;1040717;28;1497;-59
2021/11/22 00:41:17;;;;;;;;;;;;;;;21.21;32.94;95242.88;1040592;28;1384;-57
2021/11/22 00:41:47;;;;;;;;;;;;;;;21.20;33.00;95246.59;1039964;28;1880;-57
2021/11/22 00:42:17;;;;;;;;;;;;;;;21.20;32.72;95244.75;1036471;28;1124;-58
2021/11/22 00:42:48;;;;;;;;;;;;;;;21.22;32.75;95241.81;1040491;28;1084;-59
2021/11/22 00:43:19;;;;;;;;;;;;;;;21.22;32.87;95249.72;1044805;28;1161;-57
2021/11/22 00:43:49;;;;;;;;;;;;;;;21.22;32.79;95244.47;1045041;28;1127;-58
2021/11/22 00:44:20;;;;;;;;;;;;;;;21.22;32.87;95247.88;1042357;28;1497;-57
2021/11/22 00:44:50;;;;;;;;;;;;;;;21.22;32.78;95245.25;1044816;28;1146;-55
2021/11/22 00:45:20;;;;;;;;;;;;;;;21.22;32.71;95247.88;1044577;28;1225;-55
2021/11/22 00:45:51;;;;;;;;;;;;;;;21.21;32.92;95241.03;1044921;28;1014;-59
2021/11/22 00:46:21;;;;;;;;;;;;;;;21.22;32.96;95245.25;1044557;28;1887;-57
2021/11/22 00:46:52;;;;;;;;;;;;;;;21.22;32.83;95241.81;1044411;28;1623;-58
2021/11/22 00:47:22;;;;;;;;;;;;;;;21.23;32.73;95243.38;1045019;28;1159;-57
2021/11/22 00:47:52;;;;;;;;;;;;;;;21.23;32.79;95241.53;1043992;28;1013;-56
2021/11/22 00:48:23;;;;;;;;;;;;;;;21.22;32.82;95237.34;1044746;28;1153;-58
2021/11/22 00:48:53;;;;;;;;;;;;;;;21.23;32.91;95240.72;1045276;28;1036;-58
2021/11/22 00:49:24;;;;;;;;;;;;;;;21.23;32.72;95246.00;1040086;28;1745;-57
2021/11/22 00:49:54;;;;;;;;;;;;;;;21.23;32.74;95246.78;1042979;28;1104;-59
2021/11/22 00:50:25;;;;;;;;;;;;;;;21.23;32.78;95244.16;1045245;28;1127;-58
2021/11/22 00:50:56;;;;;;;;;;;;;;;21.24;32.67;95248.38;1044966;28;1083;-58
2021/11/22 00:51:26;;;;;;;;;;;;;;;21.25;32.83;95255.19;1043370;28;1765;-57
2021/11/22 00:51:56;;;;;;;;;;;;;;;21.25;32.78;95254.41;1044941;28;2135;-58
2021/11/22 00:52:27;;;;;;;;;;;;;;;21.25;32.94;95249.91;1044649;28;1115;-58
2021/11/22 00:52:57;;;;;;;;;;;;;;;21.25;33.04;95254.41;1044800;28;1025;-56
2021/11/22 00:53:29;;;;;;;;;;;;;;;21.25;32.93;95257.81;1045069;28;1178;-56
2021/11/22 00:53:59;;;;;;;;;;;;;;;21.25;32.80;95260.47;1045080;28;1060;-56
2021/11/22 00:54:30;;;;;;;;;;;;;;;21.26;32.67;95263.88;1044464;28;1084;-58
2021/11/22 00:55:00;;;;;;;;;;;;;;;21.25;32.64;95259.69;1045179;28;1197;-58
2021/11/22 00:55:31;;;;;;;;;;;;;;;21.26;32.90;95255.97;1042886;28;1629;-57
2021/11/22 00:56:01;;;;;;;;;;;;;;;21.26;32.97;95258.63;1043695;28;1032;-56
2021/11/22 00:56:35;;;;;;;;;;;;;;;21.27;32.76;95253.06;1044347;28;2159;-59
2021/11/22 00:57:06;;;;;;;;;;;;;;;21.26;32.90;95250.72;1045247;28;1096;-55
2021/11/22 00:57:36;;;;;;;;;;;;;;;21.25;32.80;95255.19;1045011;28;1205;-56
2021/11/22 00:58:06;;;;;;;;;;;;;;;21.26;32.86;95258.63;1044848;28;1081;-59
2021/11/22 00:58:37;;;;;;;;;;;;;;;21.26;32.92;95259.41;1045118;28;1111;-58
2021/11/22 00:59:07;;;;;;;;;;;;;;;21.27;32.64;95263.59;1045272;28;1135;-58
2021/11/22 00:59:37;;;;;;;;;;;;;;;21.27;32.76;95254.94;1044904;28;1209;-57
2021/11/22 01:00:09;;;;;;;;;;;;;;;21.27;32.69;95262.84;1045011;28;1124;-56
2021/11/22 01:00:39;;;;;;;;;;;;;;;21.27;32.84;95268.88;1045302;28;1088;-55
2021/11/22 01:01:09;;;;;;;;;;;;;;;21.26;32.91;95262.03;1044905;28;1171;-56
2021/11/22 01:01:40;;;;;;;;;;;;;;;21.27;32.84;95260.97;1044431;28;2156;-55
2021/11/22 01:02:10;;;;;;;;;;;;;;;21.28;32.97;95267.81;1040774;28;812;-57
2021/11/22 01:02:40;;;;;;;;;;;;;;;21.28;32.72;95267.81;1043733;28;1167;-58
2021/11/22 01:03:11;;;;;;;;;;;;;;;21.29;32.92;95265.97;1044885;28;1229;-58
2021/11/22 01:03:41;;;;;;;;;;;;;;;21.28;32.66;95274.94;1040655;28;1257;-58
2021/11/22 01:04:12;;;;;;;;;;;;;;;21.29;32.75;95277.28;1040618;28;828;-59
2021/11/22 01:04:42;;;;;;;;;;;;;;;21.29;32.63;95263.31;1040002;28;1127;-58
2021/11/22 01:05:12;;;;;;;;;;;;;;;21.29;32.69;95258.06;1044261;28;1676;-59
2021/11/22 01:05:43;;;;;;;;;;;;;;;21.29;32.92;95266.72;1043147;28;1899;-58
2021/11/22 01:06:13;;;;;;;;;;;;;;;21.26;32.79;95262.03;1044727;28;1936;-58
2021/11/22 01:06:44;;;;;;;;;;;;;;;21.30;32.66;95264.88;1044756;28;1652;-58
2021/11/22 01:07:14;;;;;;;;;;;;;;;21.30;32.97;95267.50;1044910;28;1550;-58
2021/11/22 01:07:45;;;;;;;;;;;;;;;21.30;32.92;95262.25;1044756;28;1151;-56
2021/11/22 01:08:15;;;;;;;;;;;;;;;21.30;32.79;95264.88;1044705;28;1151;-59
2021/11/22 01:08:45;;;;;;;;;;;;;;;21.30;32.71;95262.25;1044917;28;1115;-58
2021/11/22 01:09:16;;;;;;;;;;;;;;;21.30;32.78;95267.50;1045086;28;1166;-58
2021/11/22 01:09:46;;;;;;;;;;;;;;;21.30;32.92;95272.78;1045125;28;1061;-54
2021/11/22 01:10:16;;;;;;;;;;;;;;;21.30;32.60;95267.50;1044297;28;2199;-58
2021/11/22 01:10:46;;;;;;;;;;;;;;;21.31;32.96;95274.38;1045107;28;1055;-57
2021/11/22 01:11:17;;;;;;;;;;;;;;;21.31;32.79;95277.00;1044517;28;1887;-56
2021/11/22 01:11:47;;;;;;;;;;;;;;;21.29;32.63;95272.00;1042181;28;1491;-56
2021/11/22 01:12:18;;;;;;;;;;;;;;;21.30;32.79;95273.56;1044548;28;1085;-58
2021/11/22 01:12:48;;;;;;;;;;;;;;;21.30;32.84;95273.56;1042198;28;1155;-56
2021/11/22 01:13:19;;;;;;;;;;;;;;;21.31;32.74;95271.72;1040686;28;1241;-57
2021/11/22 01:13:49;;;;;;;;;;;;;;;21.31;32.92;95274.38;1040883;28;1077;-56
2021/11/22 01:14:19;;;;;;;;;;;;;;;21.30;32.90;95273.56;1043010;28;1406;-57
2021/11/22 01:14:50;;;;;;;;;;;;;;;21.31;32.89;95271.72;1044537;28;1071;-57
2021/11/22 01:15:21;;;;;;;;;;;;;;;21.31;32.89;95274.38;1044968;28;1363;-58
2021/11/22 01:15:51;;;;;;;;;;;;;;;21.32;33.11;95270.63;1044566;28;1306;-57
2021/11/22 01:16:22;;;;;;;;;;;;;;;21.31;32.69;95275.13;1043289;28;1971;-58
2021/11/22 01:16:52;;;;;;;;;;;;;;;21.31;32.90;95266.47;1042231;28;1033;-57
2021/11/22 01:17:23;;;;;;;;;;;;;;;21.32;32.70;95271.44;1044669;28;1130;-58
2021/11/22 01:17:53;;;;;;;;;;;;;;;21.32;32.66;95265.38;1044380;28;1006;-56
2021/11/22 01:18:23;;;;;;;;;;;;;;;21.32;32.68;95268.00;1045232;28;1190;-58
2021/11/22 01:18:54;;;;;;;;;;;;;;;21.32;32.81;95274.06;1045019;28;1094;-58
2021/11/22 01:19:24;;;;;;;;;;;;;;;21.33;32.69;95272.97;1044573;28;1427;-58
2021/11/22 01:19:55;;;;;;;;;;;;;;;21.32;32.90;95271.44;1044693;28;1225;-58
2021/11/22 01:20:29;;;;;;;;;;;;;;;21.32;32.64;95273.28;1044921;28;1143;-57
2021/11/22 01:20:59;;;;;;;;;;;;;;;21.32;32.92;95278.56;1044121;28;1265;-57
2021/11/22 01:21:30;;;;;;;;;;;;;;;21.32;32.87;95270.63;1043493;28;1876;-58
2021/11/22 01:22:00;;;;;;;;;;;;;;;21.32;32.62;95270.63;1043770;28;1096;-56
2021/11/22 01:22:30;;;;;;;;;;;;;;;21.32;32.84;95275.91;1044838;28;1197;-57
2021/11/22 01:23:05;;;;;;;;;;;;;;;21.33;32.65;95272.97;1044528;28;1014;-58
2021/11/22 01:23:35;;;;;;;;;;;;;;;21.33;32.75;95277.50;1045239;28;1165;-57
2021/11/22 01:24:06;;;;;;;;;;;;;;;21.32;32.83;95275.91;1045057;28;1024;-58
2021/11/22 01:24:36;;;;;;;;;;;;;;;21.33;32.89;95272.97;1035740;28;1604;-59
2021/11/22 01:25:07;;;;;;;;;;;;;;;21.33;32.98;95274.84;1043742;28;1340;-56
2021/11/22 01:25:38;;;;;;;;;;;;;;;21.33;33.08;95283.53;1043619;28;1557;-56
2021/11/22 01:26:08;;;;;;;;;;;;;;;21.33;33.10;95277.50;1040967;28;1015;-58
2021/11/22 01:26:39;;;;;;;;;;;;;;;21.32;32.61;95281.97;1043046;28;1765;-59
2021/11/22 01:27:09;;;;;;;;;;;;;;;21.33;33.04;95282.75;1044752;28;1485;-56
2021/11/22 01:27:40;;;;;;;;;;;;;;;21.34;32.93;95279.03;1044770;28;1516;-57
2021/11/22 01:28:10;;;;;;;;;;;;;;;21.33;32.82;95280.88;1040567;28;884;-57
2021/11/22 01:28:40;;;;;;;;;;;;;;;21.33;32.87;95278.25;1042134;28;1480;-58
2021/11/22 01:29:11;;;;;;;;;;;;;;;21.33;32.82;95270.34;1040480;28;1786;-56
2021/11/22 01:29:41;;;;;;;;;;;;;;;21.34;33.00;95284.31;1043701;28;1103;-58
2021/11/22 01:30:12;;;;;;;;;;;;;;;21.33;33.16;95277.50;1045214;28;1091;-58
2021/11/22 01:30:42;;;;;;;;;;;;;;;21.34;32.76;95276.41;1044616;28;1218;-57
2021/11/22 01:31:12;;;;;;;;;;;;;;;21.33;32.67;95280.13;1045044;28;808;-58
2021/11/22 01:31:43;;;;;;;;;;;;;;;21.34;32.95;95279.84;1044865;28;1175;-58
2021/11/22 01:32:13;;;;;;;;;;;;;;;21.34;32.89;95279.03;1043948;28;2231;-58
2021/11/22 01:32:44;;;;;;;;;;;;;;;21.33;32.92;95288.81;1044164;28;1178;-58
2021/11/22 01:33:14;;;;;;;;;;;;;;;21.33;32.77;95282.75;1045157;28;816;-57
2021/11/22 01:33:44;;;;;;;;;;;;;;;21.33;33.06;95283.53;1044523;28;1170;-57
2021/11/22 01:34:15;;;;;;;;;;;;;;;21.33;32.70;95280.88;1044649;28;769;-58
2021/11/22 01:34:45;;;;;;;;;;;;;;;21.34;32.69;95281.69;1044376;28;1202;-54
2021/11/22 01:35:16;;;;;;;;;;;;;;;21.34;32.75;95279.03;1044715;28;1236;-57
2021/11/22 01:35:46;;;;;;;;;;;;;;;21.33;32.79;95283.53;1044396;28;1214;-55
2021/11/22 01:36:16;;;;;;;;;;;;;;;21.34;32.65;95281.69;1044413;28;824;-56
2021/11/22 01:36:47;;;;;;;;;;;;;;;21.33;32.92;95280.88;1043888;28;1973;-56
2021/11/22 01:37:19;;;;;;;;;;;;;;;21.34;32.66;95284.31;1041690;28;1864;-58
2021/11/22 01:37:50;;;;;;;;;;;;;;;21.34;32.86;95279.03;1041916;28;1009;-58
2021/11/22 01:38:20;;;;;;;;;;;;;;;21.35;33.02;95288.53;1045062;28;1047;-55
2021/11/22 01:38:50;;;;;;;;;;;;;;;21.33;32.73;95282.75;1044989;28;1138;-58
2021/11/22 01:39:21;;;;;;;;;;;;;;;21.34;32.77;95279.03;1044859;28;1079;-57
2021/11/22 01:39:51;;;;;;;;;;;;;;;21.34;32.94;95286.94;1045182;28;1049;-58
2021/11/22 01:40:22;;;;;;;;;;;;;;;21.34;32.86;95287.75;1044885;28;1083;-56
2021/11/22 01:40:52;;;;;;;;;;;;;;;21.33;32.65;95280.88;1045020;28;1064;-57
2021/11/22 01:41:22;;;;;;;;;;;;;;;21.34;32.65;95286.94;1044793;28;1174;-57
2021/11/22 01:41:53;;;;;;;;;;;;;;;21.34;33.01;95285.09;1044898;28;1040;-58
2021/11/22 01:42:23;;;;;;;;;;;;;;;21.34;32.89;95287.75;1041917;28;2101;-58
2021/11/22 01:42:54;;;;;;;;;;;;;;;21.34;32.76;95284.31;1045030;28;1064;-56
2021/11/22 01:43:24;;;;;;;;;;;;;;;21.34;32.73;95285.09;1044753;28;1107;-58
2021/11/22 01:43:54;;;;;;;;;;;;;;;21.34;32.75;95281.69;1044866;28;1122;-56
2021/11/22 01:44:25;;;;;;;;;;;;;;;21.34;33.10;95287.75;1044377;28;1135;-58
2021/11/22 01:44:55;;;;;;;;;;;;;;;21.35;32.75;95286.66;1045087;28;1086;-58
2021/11/22 01:45:26;;;;;;;;;;;;;;;21.35;33.16;95281.38;1043212;28;1544;-57
2021/11/22 01:45:56;;;;;;;;;;;;;;;21.35;32.87;95280.63;1043004;28;1105;-56
2021/11/22 01:46:27;;;;;;;;;;;;;;;21.35;32.94;95286.66;1044134;28;2270;-58
2021/11/22 01:46:57;;;;;;;;;;;;;;;21.35;32.86;95291.16;1044866;28;1843;-58
2021/11/22 01:47:28;;;;;;;;;;;;;;;21.35;32.93;95283.25;1044079;28;2669;-56
2021/11/22 01:47:58;;;;;;;;;;;;;;;21.34;32.68;95282.47;1044236;28;1041;-57
2021/11/22 01:48:28;;;;;;;;;;;;;;;21.35;32.80;95289.28;1044891;28;1143;-57
2021/11/22 01:49:00;;;;;;;;;;;;;;;21.34;32.69;95284.31;1044193;28;1851;-58
2021/11/22 01:49:30;;;;;;;;;;;;;;;21.35;32.66;95284.03;1044652;28;1520;-57
2021/11/22 01:50:01;;;;;;;;;;;;;;;21.35;32.73;95280.63;1045104;28;1139;-58
2021/11/22 01:50:31;;;;;;;;;;;;;;;21.33;32.74;95280.88;1044910;28;992;-55
2021/11/22 01:51:02;;;;;;;;;;;;;;;21.35;33.00;95278.00;1043522;28;2192;-56
2021/11/22 01:51:32;;;;;;;;;;;;;;;21.34;32.88;95279.84;1044800;28;1134;-58
2021/11/22 01:52:04;;;;;;;;;;;;;;;21.35;32.74;95280.63;1044334;28;1872;-59
2021/11/22 01:52:34;;;;;;;;;;;;;;;21.34;32.91;95269.28;1044267;28;1023;-58
2021/11/22 01:53:04;;;;;;;;;;;;;;;21.34;32.76;95279.84;1044636;28;1143;-59
2021/11/22 01:53:35;;;;;;;;;;;;;;;21.35;32.74;95280.63;1043782;28;1584;-58
2021/11/22 01:54:05;;;;;;;;;;;;;;;21.35;32.89;95280.63;1044478;28;1101;-56
2021/11/22 01:54:35;;;;;;;;;;;;;;;21.36;32.71;95279.53;1041540;28;1648;-58
2021/11/22 01:55:06;;;;;;;;;;;;;;;21.35;32.71;95280.63;1048051;28;1218;-56
2021/11/22 01:55:37;;;;;;;;;;;;;;;21.35;32.86;95275.34;1046574;28;1161;-56
2021/11/22 01:56:07;;;;;;;;;;;;;;;21.35;32.67;95281.38;1048293;28;1056;-58
2021/11/22 01:56:38;;;;;;;;;;;;;;;21.36;32.80;95279.53;1048680;28;1987;-58
2021/11/22 01:57:08;;;;;;;;;;;;;;;21.35;32.76;95281.38;1044304;28;1868;-56
2021/11/22 01:57:42;;;;;;;;;;;;;;;21.36;33.07;95287.44;1043619;28;1131;-55
2021/11/22 01:58:12;;;;;;;;;;;;;;;21.36;33.10;95284.81;1044975;28;1198;-57
2021/11/22 01:58:42;;;;;;;;;;;;;;;21.35;32.87;95280.63;1044895;28;1186;-58
2021/11/22 01:59:14;;;;;;;;;;;;;;;21.36;32.97;95282.16;1044812;28;1118;-58
2021/11/22 01:59:44;;;;;;;;;;;;;;;21.35;32.79;95283.25;1043668;28;1536;-58
2021/11/22 02:00:18;;;;;;;;;;;;;;;21.36;33.15;95282.16;1040865;28;804;-56
2021/11/22 02:00:52;;;;;;;;;;;;;;;21.36;32.83;95292.72;1043300;28;1559;-56
2021/11/22 02:01:23;;;;;;;;;;;;;;;21.35;32.72;95283.25;1042865;28;1029;-55
2021/11/22 02:01:53;;;;;;;;;;;;;;;21.35;32.81;95280.63;1042668;28;1608;-58
2021/11/22 02:02:24;;;;;;;;;;;;;;;21.35;32.80;95278.00;1042915;28;1939;-57
2021/11/22 02:02:54;;;;;;;;;;;;;;;21.35;33.04;95286.66;1043248;28;2010;-56
2021/11/22 02:03:25;;;;;;;;;;;;;;;21.35;32.79;95283.25;1039959;28;1593;-57
2021/11/22 02:03:55;;;;;;;;;;;;;;;21.35;32.99;95286.66;1038100;28;1752;-57
2021/11/22 02:04:26;;;;;;;;;;;;;;;21.36;32.83;95279.53;1039745;28;1100;-58
2021/11/22 02:04:56;;;;;;;;;;;;;;;21.35;32.86;95288.53;1041826;28;1770;-57
2021/11/22 02:05:26;;;;;;;;;;;;;;;21.36;32.85;95284.81;1041480;28;1170;-58
2021/11/22 02:05:56;;;;;;;;;;;;;;;21.35;32.80;95283.25;1042103;28;1548;-56
2021/11/22 02:06:27;;;;;;;;;;;;;;;21.35;32.81;95285.91;1044239;28;1198;-57
2021/11/22 02:06:57;;;;;;;;;;;;;;;21.35;32.67;95288.53;1040606;28;1360;-57
2021/11/22 02:07:28;;;;;;;;;;;;;;;21.35;32.65;95291.16;1043624;28;2022;-55
2021/11/22 02:07:58;;;;;;;;;;;;;;;21.35;32.73;95291.16;1044113;28;1126;-54
2021/11/22 02:08:28;;;;;;;;;;;;;;;21.34;32.56;95290.38;1044485;28;1186;-54
2021/11/22 02:08:59;;;;;;;;;;;;;;;21.35;32.69;95296.44;1044500;28;1419;-56
2021/11/22 02:09:29;;;;;;;;;;;;;;;21.35;32.71;95285.91;1041041;28;1744;-57
2021/11/22 02:10:10;;;;;;;;;;;;;;;21.34;32.59;95287.75;1040483;28;1140;-57
2021/11/22 02:10:42;;;;;;;;;;;;;;;21.35;32.80;95291.16;1041836;28;1760;-57
2021/11/22 02:11:13;;;;;;;;;;;;;;;21.35;32.69;95293.81;1043778;28;2203;-57
2021/11/22 02:11:44;;;;;;;;;;;;;;;21.35;32.99;95296.44;1044580;28;1111;-55
2021/11/22 02:12:20;;;;;;;;;;;;;;;21.35;33.03;95291.94;1043378;28;2132;-56
2021/11/22 02:12:58;;;;;;;;;;;;;;;21.35;32.85;95293.81;1038297;28;1210;-57
2021/11/22 02:13:31;;;;;;;;;;;;;;;21.34;32.91;95294.88;1036304;28;1502;-56
2021/11/22 02:14:03;;;;;;;;;;;;;;;21.35;32.60;95296.44;1036111;28;1034;-57
2021/11/22 02:14:34;;;;;;;;;;;;;;;21.36;32.94;95292.72;1037745;28;1068;-57
2021/11/22 02:15:07;;;;;;;;;;;;;;;21.35;32.81;95296.44;1039054;28;1693;-58
2021/11/22 02:15:39;;;;;;;;;;;;;;;21.34;33.03;95295.66;1043302;28;1143;-56
2021/11/22 02:16:24;;;;;;;;;;;;;;;21.36;32.78;95298.00;1041293;28;1969;-58
2021/11/22 02:16:56;;;;;;;;;;;;;;;21.35;32.86;95297.19;1044803;28;1100;-57
2021/11/22 02:17:28;;;;;;;;;;;;;;;21.36;32.94;95305.91;1044294;28;1474;-54
2021/11/22 02:18:01;;;;;;;;;;;;;;;21.36;32.62;95298.00;1042621;28;1504;-58
2021/11/22 02:18:33;;;;;;;;;;;;;;;21.36;32.69;95300.63;1044436;28;1104;-57
2021/11/22 02:19:03;;;;;;;;;;;;;;;21.36;33.08;95301.41;1044401;28;1069;-57
2021/11/22 02:19:38;;;;;;;;;;;;;;;21.36;32.94;95304.06;1044526;28;1131;-58
2021/11/22 02:20:12;;;;;;;;;;;;;;;21.36;32.73;95300.63;1044662;28;1053;-56
2021/11/22 02:20:43;;;;;;;;;;;;;;;21.36;32.83;95308.53;1044551;28;1184;-58
2021/11/22 02:21:14;;;;;;;;;;;;;;;21.35;32.69;95302.47;1044127;28;1163;-57
2021/11/22 02:21:46;;;;;;;;;;;;;;;21.36;32.80;95308.53;1044408;28;1127;-57
2021/11/22 02:22:20;;;;;;;;;;;;;;;21.36;32.75;95303.25;1044187;28;1213;-58
2021/11/22 02:23:00;;;;;;;;;;;;;;;21.36;33.10;95308.53;1040083;28;1975;-57
2021/11/22 02:23:51;;;;;;;;;;;;;;;21.35;32.87;95307.00;1041674;28;1526;-58
2021/11/22 02:24:41;;;;;;;;;;;;;;;21.36;32.61;95305.91;1037613;28;1760;-56
2021/11/22 02:25:13;;;;;;;;;;;;;;;21.35;32.74;95304.34;1043563;28;2384;-58
2021/11/22 02:25:44;;;;;;;;;;;;;;;21.36;32.78;95304.06;1044315;28;1118;-55
2021/11/22 02:26:20;;;;;;;;;;;;;;;21.35;32.95;95313.03;1044788;28;1134;-55
2021/11/22 02:26:50;;;;;;;;;;;;;;;21.36;32.76;95308.53;1044023;28;1658;-58
2021/11/22 02:27:21;;;;;;;;;;;;;;;21.36;32.81;95303.25;1044815;28;1209;-52
2021/11/22 02:27:51;;;;;;;;;;;;;;;21.36;32.97;95311.19;1040060;28;1855;-59
2021/11/22 02:28:21;;;;;;;;;;;;;;;21.35;33.00;95309.63;1040814;28;2015;-53
2021/11/22 02:28:53;;;;;;;;;;;;;;;21.36;32.97;95311.97;1044847;28;1025;-57
2021/11/22 02:29:23;;;;;;;;;;;;;;;21.36;33.08;95308.53;1044753;28;1135;-56
2021/11/22 02:29:54;;;;;;;;;;;;;;;21.37;32.91;95304.84;1044779;28;1092;-57
2021/11/22 02:30:31;;;;;;;;;;;;;;;21.36;33.02;95313.81;1044814;28;1123;-58
2021/11/22 02:31:01;;;;;;;;;;;;;;;21.36;33.07;95309.31;1044716;28;998;-53
2021/11/22 02:31:32;;;;;;;;;;;;;;;21.36;32.82;95311.19;1044865;28;1119;-58
2021/11/22 02:32:02;;;;;;;;;;;;;;;21.36;32.94;95305.91;1044683;28;990;-58
2021/11/22 02:32:33;;;;;;;;;;;;;;;21.36;32.88;95308.53;1044691;28;1174;-58
2021/11/22 02:33:12;;;;;;;;;;;;;;;21.36;32.94;95308.53;1042244;28;2034;-58
2021/11/22 02:33:42;;;;;;;;;;;;;;;21.36;32.94;95311.19;1043591;28;1218;-58
2021/11/22 02:34:13;;;;;;;;;;;;;;;21.36;33.05;95305.91;1044549;28;856;-57
2021/11/22 02:34:43;;;;;;;;;;;;;;;21.36;33.16;95303.25;1044168;28;1115;-58
2021/11/22 02:35:15;;;;;;;;;;;;;;;21.36;32.90;95313.81;1044644;28;1328;-58
2021/11/22 02:35:52;;;;;;;;;;;;;;;21.36;32.80;95308.53;1044638;28;1119;-58
2021/11/22 02:36:22;;;;;;;;;;;;;;;21.36;32.89;95309.31;1044404;28;1154;-57
2021/11/22 02:36:52;;;;;;;;;;;;;;;21.37;32.75;95310.13;1044788;28;1909;-55
2021/11/22 02:37:23;;;;;;;;;;;;;;;21.36;32.99;95304.06;1041019;28;1747;-57
2021/11/22 02:37:53;;;;;;;;;;;;;;;21.36;32.96;95308.53;1043951;28;2035;-59
2021/11/22 02:38:27;;;;;;;;;;;;;;;21.36;32.81;95308.53;1037559;28;2170;-58
2021/11/22 02:38:58;;;;;;;;;;;;;;;21.36;32.79;95311.97;1034874;28;1490;-57
2021/11/22 02:39:28;;;;;;;;;;;;;;;21.36;32.94;95306.69;1037484;28;1167;-57
2021/11/22 02:39:59;;;;;;;;;;;;;;;21.36;32.80;95308.53;1041051;28;1147;-58
2021/11/22 02:40:29;;;;;;;;;;;;;;;21.35;32.79;95307.75;1044453;28;1166;-57
2021/11/22 02:41:00;;;;;;;;;;;;;;;21.35;32.71;95305.13;1044740;28;1120;-58
2021/11/22 02:41:30;;;;;;;;;;;;;;;21.36;33.02;95317.22;1043783;28;1355;-58
2021/11/22 02:42:01;;;;;;;;;;;;;;;21.36;32.92;95311.97;1040044;28;1014;-55
2021/11/22 02:42:32;;;;;;;;;;;;;;;21.36;32.95;95311.19;1040208;28;1124;-57
2021/11/22 02:43:02;;;;;;;;;;;;;;;21.35;32.81;95307.75;1039409;28;2091;-57
2021/11/22 02:43:33;;;;;;;;;;;;;;;21.36;32.96;95308.53;1046341;28;1226;-58
2021/11/22 02:44:04;;;;;;;;;;;;;;;21.36;32.93;95309.31;1045796;28;1055;-58